sensor_id;sensor_type;location;lat;lon;timestamp;P1;durP1;ratioP1;P2;durP2;ratioP2
55756;SDS011;41676;44.610;44.078;2024-01-11T00:00:57;21.30;;;11.93;;
55756;SDS011;41676;44.610;44.078;2024-01-11T00:06:00;18.67;;;11.25;;
55756;SDS011;41676;44.610;44.078;2024-01-11T00:11:01;22.15;;;11.38;;
55756;SDS011;41676;44.610;44.078;2024-01-11T00:16:02;24.33;;;11.32;;
55756;SDS011;41676;44.610;44.078;2024-01-11T00:21:03;29.40;;;12.75;;
55756;SDS011;41676;44.610;44.078;2024-01-11T00:26:04;27.98;;;14.10;;
55756;SDS011;41676;44.610;44.078;2024-01-11T00:31:04;25.90;;;14.05;;
55756;SDS011;41676;44.610;44.078;2024-01-11T00:36:05;29.58;;;15.23;;
55756;SDS011;41676;44.610;44.078;2024-01-11T00:41:06;32.50;;;16.90;;
55756;SDS011;41676;44.610;44.078;2024-01-11T00:46:07;31.65;;;15.82;;
55756;SDS011;41676;44.610;44.078;2024-01-11T00:51:08;28.35;;;15.38;;
55756;SDS011;41676;44.610;44.078;2024-01-11T00:56:18;28.45;;;13.85;;
55756;SDS011;41676;44.610;44.078;2024-01-11T01:01:19;30.00;;;15.40;;
55756;SDS011;41676;44.610;44.078;2024-01-11T01:06:20;30.13;;;15.65;;
55756;SDS011;41676;44.610;44.078;2024-01-11T01:11:21;28.27;;;15.05;;
55756;SDS011;41676;44.610;44.078;2024-01-11T01:16:21;28.23;;;15.05;;
55756;SDS011;41676;44.610;44.078;2024-01-11T01:21:22;26.55;;;14.70;;
55756;SDS011;41676;44.610;44.078;2024-01-11T01:26:22;24.65;;;14.13;;
55756;SDS011;41676;44.610;44.078;2024-01-11T01:31:23;27.08;;;14.82;;
55756;SDS011;41676;44.610;44.078;2024-01-11T01:36:24;28.40;;;15.07;;
55756;SDS011;41676;44.610;44.078;2024-01-11T01:41:24;31.40;;;13.73;;
55756;SDS011;41676;44.610;44.078;2024-01-11T01:46:25;31.20;;;13.77;;
55756;SDS011;41676;44.610;44.078;2024-01-11T01:51:28;23.50;;;13.77;;
55756;SDS011;41676;44.610;44.078;2024-01-11T01:56:31;25.70;;;13.93;;
55756;SDS011;41676;44.610;44.078;2024-01-11T02:01:32;26.70;;;14.60;;
55756;SDS011;41676;44.610;44.078;2024-01-11T02:06:34;28.02;;;14.40;;
55756;SDS011;41676;44.610;44.078;2024-01-11T02:11:35;30.80;;;15.50;;
55756;SDS011;41676;44.610;44.078;2024-01-11T02:16:37;25.08;;;13.98;;
55756;SDS011;41676;44.610;44.078;2024-01-11T02:21:38;27.45;;;13.88;;
55756;SDS011;41676;44.610;44.078;2024-01-11T02:32:00;27.73;;;13.20;;
55756;SDS011;41676;44.610;44.078;2024-01-11T02:37:03;27.88;;;14.32;;
55756;SDS011;41676;44.610;44.078;2024-01-11T02:42:05;27.88;;;14.98;;
55756;SDS011;41676;44.610;44.078;2024-01-11T02:47:06;31.15;;;13.80;;
55756;SDS011;41676;44.610;44.078;2024-01-11T02:52:07;30.80;;;14.40;;
55756;SDS011;41676;44.610;44.078;2024-01-11T02:57:07;24.58;;;13.95;;
55756;SDS011;41676;44.610;44.078;2024-01-11T03:02:08;26.17;;;13.75;;
55756;SDS011;41676;44.610;44.078;2024-01-11T03:07:09;28.42;;;14.65;;
55756;SDS011;41676;44.610;44.078;2024-01-11T03:12:10;24.55;;;14.05;;
55756;SDS011;41676;44.610;44.078;2024-01-11T03:17:10;24.95;;;14.35;;
55756;SDS011;41676;44.610;44.078;2024-01-11T03:22:11;23.65;;;14.00;;
55756;SDS011;41676;44.610;44.078;2024-01-11T03:27:12;27.42;;;14.43;;
55756;SDS011;41676;44.610;44.078;2024-01-11T03:32:13;25.33;;;14.05;;
55756;SDS011;41676;44.610;44.078;2024-01-11T03:37:14;27.52;;;14.63;;
55756;SDS011;41676;44.610;44.078;2024-01-11T03:42:15;22.52;;;13.60;;
55756;SDS011;41676;44.610;44.078;2024-01-11T03:47:16;28.80;;;15.15;;
55756;SDS011;41676;44.610;44.078;2024-01-11T03:52:16;28.20;;;14.18;;
55756;SDS011;41676;44.610;44.078;2024-01-11T03:57:17;28.17;;;14.32;;
55756;SDS011;41676;44.610;44.078;2024-01-11T04:02:18;27.83;;;14.68;;
55756;SDS011;41676;44.610;44.078;2024-01-11T04:07:19;28.75;;;14.73;;
55756;SDS011;41676;44.610;44.078;2024-01-11T04:12:20;27.85;;;15.63;;
55756;SDS011;41676;44.610;44.078;2024-01-11T04:17:20;27.38;;;14.30;;
55756;SDS011;41676;44.610;44.078;2024-01-11T04:22:21;29.77;;;14.43;;
55756;SDS011;41676;44.610;44.078;2024-01-11T04:27:22;26.42;;;14.80;;
55756;SDS011;41676;44.610;44.078;2024-01-11T04:32:23;33.78;;;14.40;;
55756;SDS011;41676;44.610;44.078;2024-01-11T04:37:24;31.70;;;16.55;;
55756;SDS011;41676;44.610;44.078;2024-01-11T04:42:26;28.60;;;15.25;;
55756;SDS011;41676;44.610;44.078;2024-01-11T04:47:28;28.55;;;15.13;;
55756;SDS011;41676;44.610;44.078;2024-01-11T04:52:28;28.85;;;15.82;;
55756;SDS011;41676;44.610;44.078;2024-01-11T04:57:29;28.33;;;14.20;;
55756;SDS011;41676;44.610;44.078;2024-01-11T05:02:30;44.17;;;19.15;;
55756;SDS011;41676;44.610;44.078;2024-01-11T05:07:31;44.88;;;21.05;;
55756;SDS011;41676;44.610;44.078;2024-01-11T05:12:31;42.88;;;20.20;;
55756;SDS011;41676;44.610;44.078;2024-01-11T05:17:32;39.03;;;19.88;;
55756;SDS011;41676;44.610;44.078;2024-01-11T05:22:33;37.05;;;19.45;;
55756;SDS011;41676;44.610;44.078;2024-01-11T05:27:34;32.70;;;15.50;;
55756;SDS011;41676;44.610;44.078;2024-01-11T05:32:34;31.15;;;14.80;;
55756;SDS011;41676;44.610;44.078;2024-01-11T05:37:36;26.75;;;15.40;;
55756;SDS011;41676;44.610;44.078;2024-01-11T05:42:37;29.63;;;14.30;;
55756;SDS011;41676;44.610;44.078;2024-01-11T05:47:38;26.33;;;14.05;;
55756;SDS011;41676;44.610;44.078;2024-01-11T05:52:38;31.42;;;16.85;;
55756;SDS011;41676;44.610;44.078;2024-01-11T05:57:39;29.10;;;15.82;;
55756;SDS011;41676;44.610;44.078;2024-01-11T06:02:40;35.53;;;18.23;;
55756;SDS011;41676;44.610;44.078;2024-01-11T06:07:41;33.95;;;18.05;;
55756;SDS011;41676;44.610;44.078;2024-01-11T06:12:42;31.40;;;16.65;;
55756;SDS011;41676;44.610;44.078;2024-01-11T06:17:42;26.70;;;14.15;;
55756;SDS011;41676;44.610;44.078;2024-01-11T06:22:43;26.45;;;14.35;;
55756;SDS011;41676;44.610;44.078;2024-01-11T06:27:45;31.77;;;13.40;;
55756;SDS011;41676;44.610;44.078;2024-01-11T06:32:46;19.77;;;12.60;;
55756;SDS011;41676;44.610;44.078;2024-01-11T06:37:47;21.25;;;12.75;;
55756;SDS011;41676;44.610;44.078;2024-01-11T06:42:48;20.10;;;12.63;;
55756;SDS011;41676;44.610;44.078;2024-01-11T06:47:49;20.73;;;12.55;;
55756;SDS011;41676;44.610;44.078;2024-01-11T06:52:49;19.33;;;11.77;;
55756;SDS011;41676;44.610;44.078;2024-01-11T06:57:50;18.27;;;11.55;;
55756;SDS011;41676;44.610;44.078;2024-01-11T07:02:51;19.05;;;12.02;;
55756;SDS011;41676;44.610;44.078;2024-01-11T07:07:53;17.15;;;11.27;;
55756;SDS011;41676;44.610;44.078;2024-01-11T07:12:54;16.00;;;10.98;;
55756;SDS011;41676;44.610;44.078;2024-01-11T07:17:55;13.77;;;9.38;;
55756;SDS011;41676;44.610;44.078;2024-01-11T07:22:55;13.98;;;8.73;;
55756;SDS011;41676;44.610;44.078;2024-01-11T07:27:56;14.60;;;8.60;;
55756;SDS011;41676;44.610;44.078;2024-01-11T07:32:57;15.10;;;8.60;;
55756;SDS011;41676;44.610;44.078;2024-01-11T07:37:58;11.38;;;7.25;;
55756;SDS011;41676;44.610;44.078;2024-01-11T07:42:58;14.32;;;7.72;;
55756;SDS011;41676;44.610;44.078;2024-01-11T07:47:59;14.20;;;7.05;;
55756;SDS011;41676;44.610;44.078;2024-01-11T07:53:00;15.50;;;7.43;;
55756;SDS011;41676;44.610;44.078;2024-01-11T07:58:01;10.07;;;6.80;;
55756;SDS011;41676;44.610;44.078;2024-01-11T08:03:02;11.30;;;7.15;;
55756;SDS011;41676;44.610;44.078;2024-01-11T08:08:03;11.82;;;6.93;;
55756;SDS011;41676;44.610;44.078;2024-01-11T08:13:04;9.75;;;6.07;;
55756;SDS011;41676;44.610;44.078;2024-01-11T08:18:05;9.00;;;6.03;;
55756;SDS011;41676;44.610;44.078;2024-01-11T08:23:06;10.63;;;6.32;;
55756;SDS011;41676;44.610;44.078;2024-01-11T08:28:06;11.40;;;5.93;;
55756;SDS011;41676;44.610;44.078;2024-01-11T08:33:07;9.55;;;5.00;;
55756;SDS011;41676;44.610;44.078;2024-01-11T08:38:08;8.77;;;5.22;;
55756;SDS011;41676;44.610;44.078;2024-01-11T08:43:09;8.45;;;4.75;;
55756;SDS011;41676;44.610;44.078;2024-01-11T08:48:10;8.02;;;5.22;;
55756;SDS011;41676;44.610;44.078;2024-01-11T08:53:11;10.27;;;4.55;;
55756;SDS011;41676;44.610;44.078;2024-01-11T08:58:12;9.23;;;5.47;;
55756;SDS011;41676;44.610;44.078;2024-01-11T09:03:13;9.13;;;5.35;;
55756;SDS011;41676;44.610;44.078;2024-01-11T09:08:15;10.35;;;5.97;;
55756;SDS011;41676;44.610;44.078;2024-01-11T09:13:16;9.95;;;5.68;;
55756;SDS011;41676;44.610;44.078;2024-01-11T09:18:17;9.55;;;5.75;;
55756;SDS011;41676;44.610;44.078;2024-01-11T09:23:18;13.95;;;5.70;;
55756;SDS011;41676;44.610;44.078;2024-01-11T09:28:19;13.45;;;6.70;;
55756;SDS011;41676;44.610;44.078;2024-01-11T09:33:19;11.45;;;6.18;;
55756;SDS011;41676;44.610;44.078;2024-01-11T09:38:20;9.82;;;6.35;;
55756;SDS011;41676;44.610;44.078;2024-01-11T09:43:21;9.63;;;5.80;;
55756;SDS011;41676;44.610;44.078;2024-01-11T09:48:22;9.88;;;5.65;;
55756;SDS011;41676;44.610;44.078;2024-01-11T09:53:24;10.10;;;6.18;;
55756;SDS011;41676;44.610;44.078;2024-01-11T09:58:26;10.45;;;5.85;;
55756;SDS011;41676;44.610;44.078;2024-01-11T10:03:27;11.88;;;6.28;;
55756;SDS011;41676;44.610;44.078;2024-01-11T10:08:29;12.57;;;6.97;;
55756;SDS011;41676;44.610;44.078;2024-01-11T10:13:30;10.38;;;6.57;;
55756;SDS011;41676;44.610;44.078;2024-01-11T10:18:32;14.75;;;6.97;;
55756;SDS011;41676;44.610;44.078;2024-01-11T10:23:33;15.05;;;7.07;;
55756;SDS011;41676;44.610;44.078;2024-01-11T10:28:35;11.27;;;6.28;;
55756;SDS011;41676;44.610;44.078;2024-01-11T10:33:38;9.98;;;6.03;;
55756;SDS011;41676;44.610;44.078;2024-01-11T10:38:39;9.85;;;5.65;;
55756;SDS011;41676;44.610;44.078;2024-01-11T10:43:40;11.90;;;5.40;;
55756;SDS011;41676;44.610;44.078;2024-01-11T10:48:42;11.82;;;5.63;;
55756;SDS011;41676;44.610;44.078;2024-01-11T10:53:45;11.05;;;5.32;;
55756;SDS011;41676;44.610;44.078;2024-01-11T10:58:47;7.88;;;4.82;;
55756;SDS011;41676;44.610;44.078;2024-01-11T11:03:51;8.68;;;3.90;;
55756;SDS011;41676;44.610;44.078;2024-01-11T11:08:53;5.97;;;3.53;;
55756;SDS011;41676;44.610;44.078;2024-01-11T11:13:54;8.18;;;4.10;;
55756;SDS011;41676;44.610;44.078;2024-01-11T11:18:57;10.97;;;4.77;;
55756;SDS011;41676;44.610;44.078;2024-01-11T11:23:58;10.07;;;4.22;;
55756;SDS011;41676;44.610;44.078;2024-01-11T11:28:59;7.25;;;4.13;;
55756;SDS011;41676;44.610;44.078;2024-01-11T11:34:00;7.07;;;3.08;;
55756;SDS011;41676;44.610;44.078;2024-01-11T11:39:04;5.00;;;3.03;;
55756;SDS011;41676;44.610;44.078;2024-01-11T11:44:05;5.95;;;3.30;;
55756;SDS011;41676;44.610;44.078;2024-01-11T11:49:06;7.10;;;3.88;;
55756;SDS011;41676;44.610;44.078;2024-01-11T11:54:07;11.02;;;6.38;;
55756;SDS011;41676;44.610;44.078;2024-01-11T12:04:13;7.47;;;3.95;;
55756;SDS011;41676;44.610;44.078;2024-01-11T12:09:17;7.13;;;4.18;;
55756;SDS011;41676;44.610;44.078;2024-01-11T12:14:21;7.28;;;3.60;;
55756;SDS011;41676;44.610;44.078;2024-01-11T12:19:22;7.10;;;4.22;;
55756;SDS011;41676;44.610;44.078;2024-01-11T12:24:24;8.68;;;4.18;;
55756;SDS011;41676;44.610;44.078;2024-01-11T12:29:25;7.53;;;4.68;;
55756;SDS011;41676;44.610;44.078;2024-01-11T12:34:26;6.65;;;4.10;;
55756;SDS011;41676;44.610;44.078;2024-01-11T12:39:29;7.97;;;4.38;;
55756;SDS011;41676;44.610;44.078;2024-01-11T12:44:29;7.38;;;4.80;;
55756;SDS011;41676;44.610;44.078;2024-01-11T12:49:30;8.15;;;4.45;;
55756;SDS011;41676;44.610;44.078;2024-01-11T12:54:32;9.52;;;5.43;;
55756;SDS011;41676;44.610;44.078;2024-01-11T12:59:33;8.60;;;4.78;;
55756;SDS011;41676;44.610;44.078;2024-01-11T13:04:34;9.52;;;5.55;;
55756;SDS011;41676;44.610;44.078;2024-01-11T13:09:35;18.35;;;5.40;;
55756;SDS011;41676;44.610;44.078;2024-01-11T13:14:36;8.52;;;4.80;;
55756;SDS011;41676;44.610;44.078;2024-01-11T13:19:39;9.07;;;4.37;;
55756;SDS011;41676;44.610;44.078;2024-01-11T13:24:40;10.73;;;5.28;;
55756;SDS011;41676;44.610;44.078;2024-01-11T13:29:41;10.15;;;6.20;;
55756;SDS011;41676;44.610;44.078;2024-01-11T13:34:42;11.73;;;6.85;;
55756;SDS011;41676;44.610;44.078;2024-01-11T13:39:42;9.75;;;6.07;;
55756;SDS011;41676;44.610;44.078;2024-01-11T13:44:43;11.10;;;6.57;;
55756;SDS011;41676;44.610;44.078;2024-01-11T13:49:44;8.98;;;5.20;;
55756;SDS011;41676;44.610;44.078;2024-01-11T13:54:46;8.05;;;5.15;;
55756;SDS011;41676;44.610;44.078;2024-01-11T13:59:46;27.23;;;5.97;;
55756;SDS011;41676;44.610;44.078;2024-01-11T14:04:47;13.13;;;7.15;;
55756;SDS011;41676;44.610;44.078;2024-01-11T14:09:48;12.00;;;6.60;;
55756;SDS011;41676;44.610;44.078;2024-01-11T14:14:49;12.48;;;7.13;;
55756;SDS011;41676;44.610;44.078;2024-01-11T14:19:50;14.13;;;7.18;;
55756;SDS011;41676;44.610;44.078;2024-01-11T14:24:51;12.95;;;6.40;;
55756;SDS011;41676;44.610;44.078;2024-01-11T14:29:51;15.45;;;7.03;;
55756;SDS011;41676;44.610;44.078;2024-01-11T14:34:52;16.55;;;8.65;;
55756;SDS011;41676;44.610;44.078;2024-01-11T14:39:53;14.00;;;6.82;;
55756;SDS011;41676;44.610;44.078;2024-01-11T14:44:54;15.63;;;7.75;;
55756;SDS011;41676;44.610;44.078;2024-01-11T14:49:55;13.73;;;8.70;;
55756;SDS011;41676;44.610;44.078;2024-01-11T14:54:56;15.02;;;8.98;;
55756;SDS011;41676;44.610;44.078;2024-01-11T14:59:57;17.60;;;9.90;;
55756;SDS011;41676;44.610;44.078;2024-01-11T15:04:57;12.68;;;7.93;;
55756;SDS011;41676;44.610;44.078;2024-01-11T15:09:59;12.65;;;7.55;;
55756;SDS011;41676;44.610;44.078;2024-01-11T15:15:00;22.13;;;8.07;;
55756;SDS011;41676;44.610;44.078;2024-01-11T15:20:01;14.80;;;7.47;;
55756;SDS011;41676;44.610;44.078;2024-01-11T15:25:03;15.00;;;8.02;;
55756;SDS011;41676;44.610;44.078;2024-01-11T15:30:04;29.58;;;13.98;;
55756;SDS011;41676;44.610;44.078;2024-01-11T15:35:06;54.80;;;22.95;;
55756;SDS011;41676;44.610;44.078;2024-01-11T15:40:12;43.05;;;20.80;;
55756;SDS011;41676;44.610;44.078;2024-01-11T15:45:13;28.35;;;14.45;;
55756;SDS011;41676;44.610;44.078;2024-01-11T15:50:14;27.77;;;15.70;;
55756;SDS011;41676;44.610;44.078;2024-01-11T15:55:14;33.70;;;17.48;;
55756;SDS011;41676;44.610;44.078;2024-01-11T16:00:15;35.28;;;16.95;;
55756;SDS011;41676;44.610;44.078;2024-01-11T16:05:17;30.35;;;14.45;;
55756;SDS011;41676;44.610;44.078;2024-01-11T16:10:17;27.20;;;13.10;;
55756;SDS011;41676;44.610;44.078;2024-01-11T16:15:19;29.92;;;13.82;;
55756;SDS011;41676;44.610;44.078;2024-01-11T16:20:20;24.42;;;12.73;;
55756;SDS011;41676;44.610;44.078;2024-01-11T16:25:21;27.00;;;12.30;;
55756;SDS011;41676;44.610;44.078;2024-01-11T16:30:22;20.38;;;10.95;;
55756;SDS011;41676;44.610;44.078;2024-01-11T16:35:23;23.90;;;11.40;;
55756;SDS011;41676;44.610;44.078;2024-01-11T16:40:24;27.25;;;13.15;;
55756;SDS011;41676;44.610;44.078;2024-01-11T16:45:25;33.80;;;15.38;;
55756;SDS011;41676;44.610;44.078;2024-01-11T16:50:25;31.30;;;13.88;;
55756;SDS011;41676;44.610;44.078;2024-01-11T16:55:27;26.45;;;13.02;;
55756;SDS011;41676;44.610;44.078;2024-01-11T17:00:27;23.60;;;10.88;;
55756;SDS011;41676;44.610;44.078;2024-01-11T17:05:28;19.95;;;9.50;;
55756;SDS011;41676;44.610;44.078;2024-01-11T17:10:29;14.38;;;8.10;;
55756;SDS011;41676;44.610;44.078;2024-01-11T17:15:30;23.40;;;9.98;;
55756;SDS011;41676;44.610;44.078;2024-01-11T17:20:30;21.50;;;9.65;;
55756;SDS011;41676;44.610;44.078;2024-01-11T17:25:31;21.42;;;10.30;;
55756;SDS011;41676;44.610;44.078;2024-01-11T17:30:32;21.02;;;9.27;;
55756;SDS011;41676;44.610;44.078;2024-01-11T17:35:33;19.08;;;7.93;;
55756;SDS011;41676;44.610;44.078;2024-01-11T17:40:33;17.45;;;8.30;;
55756;SDS011;41676;44.610;44.078;2024-01-11T17:45:35;17.23;;;7.78;;
55756;SDS011;41676;44.610;44.078;2024-01-11T17:50:37;14.63;;;7.93;;
55756;SDS011;41676;44.610;44.078;2024-01-11T17:55:39;13.90;;;7.45;;
55756;SDS011;41676;44.610;44.078;2024-01-11T18:00:40;17.13;;;7.60;;
55756;SDS011;41676;44.610;44.078;2024-01-11T18:05:41;18.33;;;7.22;;
55756;SDS011;41676;44.610;44.078;2024-01-11T18:10:42;14.88;;;7.25;;
55756;SDS011;41676;44.610;44.078;2024-01-11T18:15:42;17.25;;;8.43;;
55756;SDS011;41676;44.610;44.078;2024-01-11T18:20:43;15.50;;;8.07;;
55756;SDS011;41676;44.610;44.078;2024-01-11T18:25:44;19.55;;;8.35;;
55756;SDS011;41676;44.610;44.078;2024-01-11T18:30:44;19.15;;;8.80;;
55756;SDS011;41676;44.610;44.078;2024-01-11T18:35:46;19.88;;;9.07;;
55756;SDS011;41676;44.610;44.078;2024-01-11T18:40:48;19.17;;;9.98;;
55756;SDS011;41676;44.610;44.078;2024-01-11T18:45:49;20.13;;;8.55;;
55756;SDS011;41676;44.610;44.078;2024-01-11T18:50:50;43.85;;;10.25;;
55756;SDS011;41676;44.610;44.078;2024-01-11T18:55:51;20.45;;;8.45;;
55756;SDS011;41676;44.610;44.078;2024-01-11T19:00:56;19.88;;;8.52;;
55756;SDS011;41676;44.610;44.078;2024-01-11T19:05:57;38.05;;;7.90;;
55756;SDS011;41676;44.610;44.078;2024-01-11T19:10:58;26.15;;;8.15;;
55756;SDS011;41676;44.610;44.078;2024-01-11T19:16:00;14.98;;;7.60;;
55756;SDS011;41676;44.610;44.078;2024-01-11T19:21:00;13.13;;;6.97;;
55756;SDS011;41676;44.610;44.078;2024-01-11T19:26:01;17.40;;;7.22;;
55756;SDS011;41676;44.610;44.078;2024-01-11T19:31:03;15.75;;;6.95;;
55756;SDS011;41676;44.610;44.078;2024-01-11T19:36:04;18.38;;;8.30;;
55756;SDS011;41676;44.610;44.078;2024-01-11T19:41:05;22.02;;;8.82;;
55756;SDS011;41676;44.610;44.078;2024-01-11T19:46:06;25.67;;;11.10;;
55756;SDS011;41676;44.610;44.078;2024-01-11T19:51:10;29.48;;;12.10;;
55756;SDS011;41676;44.610;44.078;2024-01-11T19:56:14;27.02;;;10.90;;
55756;SDS011;41676;44.610;44.078;2024-01-11T20:01:19;23.70;;;9.45;;
55756;SDS011;41676;44.610;44.078;2024-01-11T20:06:19;22.23;;;9.30;;
55756;SDS011;41676;44.610;44.078;2024-01-11T20:11:20;21.42;;;10.20;;
55756;SDS011;41676;44.610;44.078;2024-01-11T20:16:21;19.95;;;8.20;;
55756;SDS011;41676;44.610;44.078;2024-01-11T20:21:22;18.13;;;8.60;;
55756;SDS011;41676;44.610;44.078;2024-01-11T20:26:23;16.63;;;8.55;;
55756;SDS011;41676;44.610;44.078;2024-01-11T20:31:24;16.95;;;8.75;;
55756;SDS011;41676;44.610;44.078;2024-01-11T20:36:26;21.20;;;8.93;;
55756;SDS011;41676;44.610;44.078;2024-01-11T20:41:28;16.25;;;8.13;;
55756;SDS011;41676;44.610;44.078;2024-01-11T20:46:29;17.63;;;9.10;;
55756;SDS011;41676;44.610;44.078;2024-01-11T20:51:30;18.05;;;9.18;;
55756;SDS011;41676;44.610;44.078;2024-01-11T20:56:30;17.88;;;8.73;;
55756;SDS011;41676;44.610;44.078;2024-01-11T21:01:32;17.60;;;8.52;;
55756;SDS011;41676;44.610;44.078;2024-01-11T21:06:33;24.98;;;9.95;;
55756;SDS011;41676;44.610;44.078;2024-01-11T21:11:34;23.23;;;9.95;;
55756;SDS011;41676;44.610;44.078;2024-01-11T21:16:34;23.67;;;10.50;;
55756;SDS011;41676;44.610;44.078;2024-01-11T21:21:39;19.73;;;9.38;;
55756;SDS011;41676;44.610;44.078;2024-01-11T21:26:41;21.90;;;9.32;;
55756;SDS011;41676;44.610;44.078;2024-01-11T21:31:42;25.27;;;11.00;;
55756;SDS011;41676;44.610;44.078;2024-01-11T21:36:43;23.30;;;10.52;;
55756;SDS011;41676;44.610;44.078;2024-01-11T21:41:43;23.08;;;9.85;;
55756;SDS011;41676;44.610;44.078;2024-01-11T21:46:44;16.88;;;8.93;;
55756;SDS011;41676;44.610;44.078;2024-01-11T21:51:45;17.88;;;8.57;;
55756;SDS011;41676;44.610;44.078;2024-01-11T21:56:49;17.48;;;8.85;;
55756;SDS011;41676;44.610;44.078;2024-01-11T22:01:50;15.35;;;7.82;;
55756;SDS011;41676;44.610;44.078;2024-01-11T22:06:50;19.67;;;9.00;;
55756;SDS011;41676;44.610;44.078;2024-01-11T22:11:51;19.02;;;9.00;;
55756;SDS011;41676;44.610;44.078;2024-01-11T22:16:52;23.55;;;10.07;;
55756;SDS011;41676;44.610;44.078;2024-01-11T22:21:52;19.80;;;9.30;;
55756;SDS011;41676;44.610;44.078;2024-01-11T22:26:53;21.35;;;9.13;;
55756;SDS011;41676;44.610;44.078;2024-01-11T22:31:54;27.58;;;13.40;;
55756;SDS011;41676;44.610;44.078;2024-01-11T22:36:55;31.08;;;12.40;;
55756;SDS011;41676;44.610;44.078;2024-01-11T22:41:55;29.65;;;11.90;;
55756;SDS011;41676;44.610;44.078;2024-01-11T22:46:56;25.10;;;11.15;;
55756;SDS011;41676;44.610;44.078;2024-01-11T22:51:57;20.20;;;10.13;;
55756;SDS011;41676;44.610;44.078;2024-01-11T22:56:58;21.00;;;10.85;;
55756;SDS011;41676;44.610;44.078;2024-01-11T23:01:59;21.92;;;10.48;;
55756;SDS011;41676;44.610;44.078;2024-01-11T23:07:00;21.63;;;9.63;;
55756;SDS011;41676;44.610;44.078;2024-01-11T23:12:01;18.60;;;9.07;;
55756;SDS011;41676;44.610;44.078;2024-01-11T23:17:02;18.02;;;10.10;;
55756;SDS011;41676;44.610;44.078;2024-01-11T23:22:03;20.70;;;9.73;;
55756;SDS011;41676;44.610;44.078;2024-01-11T23:27:04;24.55;;;11.00;;
55756;SDS011;41676;44.610;44.078;2024-01-11T23:32:06;22.77;;;10.40;;
55756;SDS011;41676;44.610;44.078;2024-01-11T23:37:06;26.05;;;10.75;;
55756;SDS011;41676;44.610;44.078;2024-01-11T23:42:07;28.58;;;12.23;;
55756;SDS011;41676;44.610;44.078;2024-01-11T23:47:08;22.35;;;11.00;;
55756;SDS011;41676;44.610;44.078;2024-01-11T23:52:09;19.63;;;10.50;;
55756;SDS011;41676;44.610;44.078;2024-01-11T23:57:10;20.70;;;10.02;;
